sensor_id;sensor_type;location;lat;lon;timestamp;temperature;humidity
22838;DHT22;11585;51.450;-0.240;2022-07-12T00:01:09;25.60;99.90
22838;DHT22;11585;51.450;-0.240;2022-07-12T00:03:36;25.60;99.90
22838;DHT22;11585;51.450;-0.240;2022-07-12T00:06:01;25.50;99.90
22838;DHT22;11585;51.450;-0.240;2022-07-12T00:08:27;25.50;99.90
22838;DHT22;11585;51.450;-0.240;2022-07-12T00:10:53;25.50;99.90
22838;DHT22;11585;51.450;-0.240;2022-07-12T00:13:19;25.50;99.90
22838;DHT22;11585;51.450;-0.240;2022-07-12T00:15:45;25.50;99.90
22838;DHT22;11585;51.450;-0.240;2022-07-12T00:18:11;25.50;99.90
22838;DHT22;11585;51.450;-0.240;2022-07-12T00:20:37;25.50;99.90
22838;DHT22;11585;51.450;-0.240;2022-07-12T00:23:03;25.50;99.90
22838;DHT22;11585;51.450;-0.240;2022-07-12T00:25:29;25.40;99.90
22838;DHT22;11585;51.450;-0.240;2022-07-12T00:28:15;25.40;99.90
22838;DHT22;11585;51.450;-0.240;2022-07-12T00:30:41;25.40;99.90
22838;DHT22;11585;51.450;-0.240;2022-07-12T00:33:06;25.40;99.90
22838;DHT22;11585;51.450;-0.240;2022-07-12T00:35:32;25.30;99.90
22838;DHT22;11585;51.450;-0.240;2022-07-12T00:41:03;25.30;99.90
22838;DHT22;11585;51.450;-0.240;2022-07-12T00:43:29;25.30;99.90
22838;DHT22;11585;51.450;-0.240;2022-07-12T00:45:55;25.30;99.90
22838;DHT22;11585;51.450;-0.240;2022-07-12T00:48:22;25.30;99.90
22838;DHT22;11585;51.450;-0.240;2022-07-12T00:50:48;25.30;99.90
22838;DHT22;11585;51.450;-0.240;2022-07-12T00:53:15;25.30;99.90
22838;DHT22;11585;51.450;-0.240;2022-07-12T00:55:42;25.20;99.90
22838;DHT22;11585;51.450;-0.240;2022-07-12T00:58:08;25.20;99.90
22838;DHT22;11585;51.450;-0.240;2022-07-12T01:00:34;25.20;99.90
22838;DHT22;11585;51.450;-0.240;2022-07-12T01:03:02;25.20;99.90
22838;DHT22;11585;51.450;-0.240;2022-07-12T01:05:28;25.20;99.90
22838;DHT22;11585;51.450;-0.240;2022-07-12T01:08:13;25.10;99.90
22838;DHT22;11585;51.450;-0.240;2022-07-12T01:10:40;25.10;99.90
22838;DHT22;11585;51.450;-0.240;2022-07-12T01:13:08;25.10;99.90
22838;DHT22;11585;51.450;-0.240;2022-07-12T01:15:34;25.10;99.90
22838;DHT22;11585;51.450;-0.240;2022-07-12T01:18:02;25.10;99.90
22838;DHT22;11585;51.450;-0.240;2022-07-12T01:20:29;25.10;99.90
22838;DHT22;11585;51.450;-0.240;2022-07-12T01:22:56;25.00;99.90
22838;DHT22;11585;51.450;-0.240;2022-07-12T01:25:24;25.00;99.90
22838;DHT22;11585;51.450;-0.240;2022-07-12T01:27:51;25.00;99.90
22838;DHT22;11585;51.450;-0.240;2022-07-12T01:30:16;25.00;99.90
22838;DHT22;11585;51.450;-0.240;2022-07-12T01:32:42;25.00;99.90
22838;DHT22;11585;51.450;-0.240;2022-07-12T01:35:09;25.00;99.90
22838;DHT22;11585;51.450;-0.240;2022-07-12T01:37:40;25.00;99.90
22838;DHT22;11585;51.450;-0.240;2022-07-12T01:40:14;25.00;99.90
22838;DHT22;11585;51.450;-0.240;2022-07-12T01:42:40;25.00;99.90
22838;DHT22;11585;51.450;-0.240;2022-07-12T01:45:07;24.90;99.90
22838;DHT22;11585;51.450;-0.240;2022-07-12T01:47:33;25.00;99.90
22838;DHT22;11585;51.450;-0.240;2022-07-12T01:49:59;24.90;99.90
22838;DHT22;11585;51.450;-0.240;2022-07-12T01:52:26;24.90;99.90
22838;DHT22;11585;51.450;-0.240;2022-07-12T01:54:53;24.90;99.90
22838;DHT22;11585;51.450;-0.240;2022-07-12T01:57:19;24.90;99.90
22838;DHT22;11585;51.450;-0.240;2022-07-12T01:59:47;24.90;99.90
22838;DHT22;11585;51.450;-0.240;2022-07-12T02:02:13;24.90;99.90
22838;DHT22;11585;51.450;-0.240;2022-07-12T02:04:39;24.90;99.90
22838;DHT22;11585;51.450;-0.240;2022-07-12T02:07:05;24.80;99.90
22838;DHT22;11585;51.450;-0.240;2022-07-12T02:09:34;24.80;99.90
22838;DHT22;11585;51.450;-0.240;2022-07-12T02:12:00;24.80;99.90
22838;DHT22;11585;51.450;-0.240;2022-07-12T02:14:26;24.80;99.90
22838;DHT22;11585;51.450;-0.240;2022-07-12T02:16:52;24.80;99.90
22838;DHT22;11585;51.450;-0.240;2022-07-12T02:19:18;24.80;99.90
22838;DHT22;11585;51.450;-0.240;2022-07-12T02:21:44;24.80;99.90
22838;DHT22;11585;51.450;-0.240;2022-07-12T02:24:10;24.70;99.90
22838;DHT22;11585;51.450;-0.240;2022-07-12T02:26:36;24.70;99.90
22838;DHT22;11585;51.450;-0.240;2022-07-12T02:29:03;24.80;99.90
22838;DHT22;11585;51.450;-0.240;2022-07-12T02:31:29;24.70;99.90
22838;DHT22;11585;51.450;-0.240;2022-07-12T02:33:55;24.70;99.90
22838;DHT22;11585;51.450;-0.240;2022-07-12T02:36:21;24.70;99.90
22838;DHT22;11585;51.450;-0.240;2022-07-12T02:39:06;24.70;99.90
22838;DHT22;11585;51.450;-0.240;2022-07-12T02:41:32;24.70;99.90
22838;DHT22;11585;51.450;-0.240;2022-07-12T02:43:59;24.60;99.90
22838;DHT22;11585;51.450;-0.240;2022-07-12T02:46:25;24.60;99.90
22838;DHT22;11585;51.450;-0.240;2022-07-12T02:48:51;24.60;99.90
22838;DHT22;11585;51.450;-0.240;2022-07-12T02:51:18;24.60;99.90
22838;DHT22;11585;51.450;-0.240;2022-07-12T02:53:44;24.60;99.90
22838;DHT22;11585;51.450;-0.240;2022-07-12T02:56:10;24.60;99.90
22838;DHT22;11585;51.450;-0.240;2022-07-12T02:58:38;24.60;99.90
22838;DHT22;11585;51.450;-0.240;2022-07-12T03:01:04;24.60;99.90
22838;DHT22;11585;51.450;-0.240;2022-07-12T03:03:29;24.50;99.90
22838;DHT22;11585;51.450;-0.240;2022-07-12T03:05:55;24.50;99.90
22838;DHT22;11585;51.450;-0.240;2022-07-12T03:08:23;24.50;99.90
22838;DHT22;11585;51.450;-0.240;2022-07-12T03:10:48;24.50;99.90
22838;DHT22;11585;51.450;-0.240;2022-07-12T03:13:14;24.50;99.90
22838;DHT22;11585;51.450;-0.240;2022-07-12T03:15:40;24.50;99.90
22838;DHT22;11585;51.450;-0.240;2022-07-12T03:18:08;24.50;99.90
22838;DHT22;11585;51.450;-0.240;2022-07-12T03:20:34;24.50;99.90
22838;DHT22;11585;51.450;-0.240;2022-07-12T03:23:01;24.50;99.90
22838;DHT22;11585;51.450;-0.240;2022-07-12T03:25:26;24.40;99.90
22838;DHT22;11585;51.450;-0.240;2022-07-12T03:27:53;24.40;99.90
22838;DHT22;11585;51.450;-0.240;2022-07-12T03:30:20;24.40;99.90
22838;DHT22;11585;51.450;-0.240;2022-07-12T03:32:46;24.40;99.90
22838;DHT22;11585;51.450;-0.240;2022-07-12T03:35:14;24.40;99.90
22838;DHT22;11585;51.450;-0.240;2022-07-12T03:37:51;24.40;99.90
22838;DHT22;11585;51.450;-0.240;2022-07-12T03:40:19;24.40;99.90
22838;DHT22;11585;51.450;-0.240;2022-07-12T03:42:45;24.40;99.90
22838;DHT22;11585;51.450;-0.240;2022-07-12T03:45:14;24.40;99.90
22838;DHT22;11585;51.450;-0.240;2022-07-12T03:47:41;24.30;99.90
22838;DHT22;11585;51.450;-0.240;2022-07-12T03:50:09;24.30;99.90
22838;DHT22;11585;51.450;-0.240;2022-07-12T03:52:37;24.30;99.90
22838;DHT22;11585;51.450;-0.240;2022-07-12T03:55:04;24.30;99.90
22838;DHT22;11585;51.450;-0.240;2022-07-12T03:57:30;24.30;99.90
22838;DHT22;11585;51.450;-0.240;2022-07-12T03:59:59;24.30;99.90
22838;DHT22;11585;51.450;-0.240;2022-07-12T04:02:26;24.30;99.90
22838;DHT22;11585;51.450;-0.240;2022-07-12T04:04:52;24.30;99.90
22838;DHT22;11585;51.450;-0.240;2022-07-12T04:07:18;24.20;99.90
22838;DHT22;11585;51.450;-0.240;2022-07-12T04:09:45;24.20;99.90
22838;DHT22;11585;51.450;-0.240;2022-07-12T04:12:11;24.20;99.90
22838;DHT22;11585;51.450;-0.240;2022-07-12T04:14:37;24.20;99.90
22838;DHT22;11585;51.450;-0.240;2022-07-12T04:17:03;24.20;99.90
22838;DHT22;11585;51.450;-0.240;2022-07-12T04:19:31;24.20;99.90
22838;DHT22;11585;51.450;-0.240;2022-07-12T04:21:58;24.20;99.90
22838;DHT22;11585;51.450;-0.240;2022-07-12T04:24:24;24.20;99.90
22838;DHT22;11585;51.450;-0.240;2022-07-12T04:26:51;24.20;99.90
22838;DHT22;11585;51.450;-0.240;2022-07-12T04:29:18;24.20;99.90
22838;DHT22;11585;51.450;-0.240;2022-07-12T04:31:45;24.20;99.90
22838;DHT22;11585;51.450;-0.240;2022-07-12T04:34:11;24.10;99.90
22838;DHT22;11585;51.450;-0.240;2022-07-12T04:36:37;24.20;99.90
22838;DHT22;11585;51.450;-0.240;2022-07-12T04:39:03;24.20;99.90
22838;DHT22;11585;51.450;-0.240;2022-07-12T04:41:29;24.20;99.90
22838;DHT22;11585;51.450;-0.240;2022-07-12T04:43:55;24.20;99.90
22838;DHT22;11585;51.450;-0.240;2022-07-12T04:46:21;24.10;99.90
22838;DHT22;11585;51.450;-0.240;2022-07-12T04:48:47;24.10;99.90
22838;DHT22;11585;51.450;-0.240;2022-07-12T04:51:13;24.10;99.90
22838;DHT22;11585;51.450;-0.240;2022-07-12T04:53:42;24.10;99.90
22838;DHT22;11585;51.450;-0.240;2022-07-12T04:56:08;24.10;99.90
22838;DHT22;11585;51.450;-0.240;2022-07-12T04:58:37;24.10;99.90
22838;DHT22;11585;51.450;-0.240;2022-07-12T05:01:03;24.10;99.90
22838;DHT22;11585;51.450;-0.240;2022-07-12T05:03:29;24.10;99.90
22838;DHT22;11585;51.450;-0.240;2022-07-12T05:05:56;24.10;99.90
22838;DHT22;11585;51.450;-0.240;2022-07-12T05:08:25;24.10;99.90
22838;DHT22;11585;51.450;-0.240;2022-07-12T05:10:51;24.10;99.90
22838;DHT22;11585;51.450;-0.240;2022-07-12T05:13:17;24.10;99.90
22838;DHT22;11585;51.450;-0.240;2022-07-12T05:15:44;24.10;99.90
22838;DHT22;11585;51.450;-0.240;2022-07-12T05:18:10;24.10;99.90
22838;DHT22;11585;51.450;-0.240;2022-07-12T05:20:36;24.00;99.90
22838;DHT22;11585;51.450;-0.240;2022-07-12T05:23:02;24.10;99.90
22838;DHT22;11585;51.450;-0.240;2022-07-12T05:25:31;24.10;99.90
22838;DHT22;11585;51.450;-0.240;2022-07-12T05:27:57;24.10;99.90
22838;DHT22;11585;51.450;-0.240;2022-07-12T05:30:24;24.00;99.90
22838;DHT22;11585;51.450;-0.240;2022-07-12T05:32:52;24.10;99.90
22838;DHT22;11585;51.450;-0.240;2022-07-12T05:35:18;24.20;99.90
22838;DHT22;11585;51.450;-0.240;2022-07-12T05:37:44;24.10;99.90
22838;DHT22;11585;51.450;-0.240;2022-07-12T05:40:16;24.10;99.90
22838;DHT22;11585;51.450;-0.240;2022-07-12T05:42:44;24.10;99.90
22838;DHT22;11585;51.450;-0.240;2022-07-12T05:45:10;24.10;99.90
22838;DHT22;11585;51.450;-0.240;2022-07-12T05:47:38;24.00;99.90
22838;DHT22;11585;51.450;-0.240;2022-07-12T05:50:05;24.10;99.90
22838;DHT22;11585;51.450;-0.240;2022-07-12T05:52:34;24.10;99.90
22838;DHT22;11585;51.450;-0.240;2022-07-12T05:55:22;24.10;99.90
22838;DHT22;11585;51.450;-0.240;2022-07-12T05:57:51;24.10;99.90
22838;DHT22;11585;51.450;-0.240;2022-07-12T06:00:17;24.10;99.90
22838;DHT22;11585;51.450;-0.240;2022-07-12T06:02:43;24.20;99.90
22838;DHT22;11585;51.450;-0.240;2022-07-12T06:05:09;24.10;99.90
22838;DHT22;11585;51.450;-0.240;2022-07-12T06:07:35;24.10;99.90
22838;DHT22;11585;51.450;-0.240;2022-07-12T06:10:02;24.10;99.90
22838;DHT22;11585;51.450;-0.240;2022-07-12T06:12:28;24.10;99.90
22838;DHT22;11585;51.450;-0.240;2022-07-12T06:14:54;24.20;99.90
22838;DHT22;11585;51.450;-0.240;2022-07-12T06:17:20;24.20;99.90
22838;DHT22;11585;51.450;-0.240;2022-07-12T06:19:48;24.20;99.90
22838;DHT22;11585;51.450;-0.240;2022-07-12T06:22:14;24.20;99.90
22838;DHT22;11585;51.450;-0.240;2022-07-12T06:24:40;24.20;99.90
22838;DHT22;11585;51.450;-0.240;2022-07-12T06:27:06;24.20;99.90
22838;DHT22;11585;51.450;-0.240;2022-07-12T06:29:32;24.30;99.90
22838;DHT22;11585;51.450;-0.240;2022-07-12T06:31:58;24.30;99.90
22838;DHT22;11585;51.450;-0.240;2022-07-12T06:34:25;24.30;99.90
22838;DHT22;11585;51.450;-0.240;2022-07-12T06:36:53;24.30;99.90
22838;DHT22;11585;51.450;-0.240;2022-07-12T06:39:20;24.40;99.90
22838;DHT22;11585;51.450;-0.240;2022-07-12T06:41:46;24.40;99.90
22838;DHT22;11585;51.450;-0.240;2022-07-12T06:44:14;24.40;99.90
22838;DHT22;11585;51.450;-0.240;2022-07-12T06:46:41;24.30;99.90
22838;DHT22;11585;51.450;-0.240;2022-07-12T06:49:12;24.40;99.90
22838;DHT22;11585;51.450;-0.240;2022-07-12T06:51:38;24.50;99.90
22838;DHT22;11585;51.450;-0.240;2022-07-12T06:54:08;24.50;99.90
22838;DHT22;11585;51.450;-0.240;2022-07-12T06:56:33;24.50;99.90
22838;DHT22;11585;51.450;-0.240;2022-07-12T06:59:03;24.50;99.90
22838;DHT22;11585;51.450;-0.240;2022-07-12T07:01:29;25.10;99.90
22838;DHT22;11585;51.450;-0.240;2022-07-12T07:03:55;24.60;99.90
22838;DHT22;11585;51.450;-0.240;2022-07-12T07:06:21;24.70;99.90
22838;DHT22;11585;51.450;-0.240;2022-07-12T07:08:47;24.70;99.90
22838;DHT22;11585;51.450;-0.240;2022-07-12T07:11:13;24.70;99.90
22838;DHT22;11585;51.450;-0.240;2022-07-12T07:13:39;24.80;99.90
22838;DHT22;11585;51.450;-0.240;2022-07-12T07:16:05;24.80;99.90
22838;DHT22;11585;51.450;-0.240;2022-07-12T07:18:32;24.90;99.90
22838;DHT22;11585;51.450;-0.240;2022-07-12T07:20:58;24.90;99.90
22838;DHT22;11585;51.450;-0.240;2022-07-12T07:23:27;25.00;99.90
22838;DHT22;11585;51.450;-0.240;2022-07-12T07:25:53;25.00;99.90
22838;DHT22;11585;51.450;-0.240;2022-07-12T07:28:22;25.10;99.90
22838;DHT22;11585;51.450;-0.240;2022-07-12T07:30:47;25.10;99.90
22838;DHT22;11585;51.450;-0.240;2022-07-12T07:33:23;25.20;99.90
22838;DHT22;11585;51.450;-0.240;2022-07-12T07:35:50;25.30;99.90
22838;DHT22;11585;51.450;-0.240;2022-07-12T07:38:17;25.30;99.90
22838;DHT22;11585;51.450;-0.240;2022-07-12T07:40:43;25.30;99.90
22838;DHT22;11585;51.450;-0.240;2022-07-12T07:43:09;25.40;99.90
22838;DHT22;11585;51.450;-0.240;2022-07-12T07:45:35;25.50;99.90
22838;DHT22;11585;51.450;-0.240;2022-07-12T07:48:02;25.50;99.90
22838;DHT22;11585;51.450;-0.240;2022-07-12T07:50:28;25.60;99.90
22838;DHT22;11585;51.450;-0.240;2022-07-12T07:52:57;25.60;99.90
22838;DHT22;11585;51.450;-0.240;2022-07-12T07:55:23;25.70;99.90
22838;DHT22;11585;51.450;-0.240;2022-07-12T07:57:49;25.70;99.90
22838;DHT22;11585;51.450;-0.240;2022-07-12T08:00:15;25.70;99.90
22838;DHT22;11585;51.450;-0.240;2022-07-12T08:02:42;25.70;99.90
22838;DHT22;11585;51.450;-0.240;2022-07-12T08:05:08;25.80;99.90
22838;DHT22;11585;51.450;-0.240;2022-07-12T08:07:34;25.80;99.90
22838;DHT22;11585;51.450;-0.240;2022-07-12T08:10:12;25.90;99.90
22838;DHT22;11585;51.450;-0.240;2022-07-12T08:12:38;25.90;99.90
22838;DHT22;11585;51.450;-0.240;2022-07-12T08:15:07;25.90;99.90
22838;DHT22;11585;51.450;-0.240;2022-07-12T08:17:33;25.90;99.90
22838;DHT22;11585;51.450;-0.240;2022-07-12T08:19:59;26.00;99.90
22838;DHT22;11585;51.450;-0.240;2022-07-12T08:22:26;26.00;99.90
22838;DHT22;11585;51.450;-0.240;2022-07-12T08:24:52;26.00;99.90
22838;DHT22;11585;51.450;-0.240;2022-07-12T08:27:18;26.10;99.90
22838;DHT22;11585;51.450;-0.240;2022-07-12T08:29:44;26.10;99.90
22838;DHT22;11585;51.450;-0.240;2022-07-12T08:32:10;26.10;99.90
22838;DHT22;11585;51.450;-0.240;2022-07-12T08:34:36;26.20;99.90
22838;DHT22;11585;51.450;-0.240;2022-07-12T08:37:02;26.20;99.90
22838;DHT22;11585;51.450;-0.240;2022-07-12T08:39:31;26.00;99.90
22838;DHT22;11585;51.450;-0.240;2022-07-12T08:41:57;26.30;99.90
22838;DHT22;11585;51.450;-0.240;2022-07-12T08:44:26;26.30;99.90
22838;DHT22;11585;51.450;-0.240;2022-07-12T08:47:01;26.30;99.90
22838;DHT22;11585;51.450;-0.240;2022-07-12T08:49:27;26.30;99.90
22838;DHT22;11585;51.450;-0.240;2022-07-12T08:51:53;26.30;99.90
22838;DHT22;11585;51.450;-0.240;2022-07-12T08:54:38;26.30;99.90
22838;DHT22;11585;51.450;-0.240;2022-07-12T08:57:04;26.40;99.90
22838;DHT22;11585;51.450;-0.240;2022-07-12T08:59:49;26.40;99.90
22838;DHT22;11585;51.450;-0.240;2022-07-12T09:02:24;26.40;99.90
22838;DHT22;11585;51.450;-0.240;2022-07-12T09:05:05;26.40;99.90
22838;DHT22;11585;51.450;-0.240;2022-07-12T09:07:37;26.40;99.90
22838;DHT22;11585;51.450;-0.240;2022-07-12T09:10:08;26.40;99.90
22838;DHT22;11585;51.450;-0.240;2022-07-12T09:12:35;26.50;99.90
22838;DHT22;11585;51.450;-0.240;2022-07-12T09:15:14;26.50;99.90
22838;DHT22;11585;51.450;-0.240;2022-07-12T09:17:59;26.50;99.90
22838;DHT22;11585;51.450;-0.240;2022-07-12T09:20:27;26.60;99.90
22838;DHT22;11585;51.450;-0.240;2022-07-12T09:23:00;26.60;99.90
22838;DHT22;11585;51.450;-0.240;2022-07-12T09:25:27;26.60;99.90
22838;DHT22;11585;51.450;-0.240;2022-07-12T09:27:54;26.70;99.90
22838;DHT22;11585;51.450;-0.240;2022-07-12T09:30:24;26.70;99.90
22838;DHT22;11585;51.450;-0.240;2022-07-12T09:33:10;26.80;99.90
22838;DHT22;11585;51.450;-0.240;2022-07-12T09:36:01;26.80;99.90
22838;DHT22;11585;51.450;-0.240;2022-07-12T09:38:34;26.80;99.90
22838;DHT22;11585;51.450;-0.240;2022-07-12T09:41:01;26.80;99.90
22838;DHT22;11585;51.450;-0.240;2022-07-12T09:43:27;26.90;99.90
22838;DHT22;11585;51.450;-0.240;2022-07-12T09:45:54;26.90;99.90
22838;DHT22;11585;51.450;-0.240;2022-07-12T09:48:20;27.00;99.90
22838;DHT22;11585;51.450;-0.240;2022-07-12T09:50:52;27.00;99.90
22838;DHT22;11585;51.450;-0.240;2022-07-12T09:53:40;27.10;99.90
22838;DHT22;11585;51.450;-0.240;2022-07-12T09:56:11;27.10;99.90
22838;DHT22;11585;51.450;-0.240;2022-07-12T09:58:47;27.20;99.90
22838;DHT22;11585;51.450;-0.240;2022-07-12T10:01:16;27.20;99.90
22838;DHT22;11585;51.450;-0.240;2022-07-12T10:03:42;27.20;99.90
22838;DHT22;11585;51.450;-0.240;2022-07-12T10:06:09;27.20;99.90
22838;DHT22;11585;51.450;-0.240;2022-07-12T10:08:37;27.30;99.90
22838;DHT22;11585;51.450;-0.240;2022-07-12T10:11:03;27.30;99.90
22838;DHT22;11585;51.450;-0.240;2022-07-12T10:13:31;27.30;99.90
22838;DHT22;11585;51.450;-0.240;2022-07-12T10:16:00;27.40;99.90
22838;DHT22;11585;51.450;-0.240;2022-07-12T10:18:27;27.40;99.90
22838;DHT22;11585;51.450;-0.240;2022-07-12T10:20:57;27.40;99.90
22838;DHT22;11585;51.450;-0.240;2022-07-12T10:25:52;27.40;99.90
22838;DHT22;11585;51.450;-0.240;2022-07-12T10:28:17;27.50;99.90
22838;DHT22;11585;51.450;-0.240;2022-07-12T10:30:45;27.50;99.90
22838;DHT22;11585;51.450;-0.240;2022-07-12T10:33:18;27.50;99.90
22838;DHT22;11585;51.450;-0.240;2022-07-12T10:38:25;27.60;99.90
22838;DHT22;11585;51.450;-0.240;2022-07-12T10:40:52;27.60;99.90
22838;DHT22;11585;51.450;-0.240;2022-07-12T10:43:20;27.70;99.90
22838;DHT22;11585;51.450;-0.240;2022-07-12T10:45:47;27.70;99.90
22838;DHT22;11585;51.450;-0.240;2022-07-12T10:53:33;27.80;99.90
22838;DHT22;11585;51.450;-0.240;2022-07-12T10:56:21;27.90;99.90
22838;DHT22;11585;51.450;-0.240;2022-07-12T10:58:55;27.90;99.90
22838;DHT22;11585;51.450;-0.240;2022-07-12T11:01:27;28.00;99.90
22838;DHT22;11585;51.450;-0.240;2022-07-12T11:04:09;28.00;99.90
22838;DHT22;11585;51.450;-0.240;2022-07-12T11:06:38;28.00;99.90
22838;DHT22;11585;51.450;-0.240;2022-07-12T11:09:15;28.00;99.90
22838;DHT22;11585;51.450;-0.240;2022-07-12T11:11:46;28.00;99.90
22838;DHT22;11585;51.450;-0.240;2022-07-12T11:14:26;28.10;99.90
22838;DHT22;11585;51.450;-0.240;2022-07-12T11:17:08;28.10;99.90
22838;DHT22;11585;51.450;-0.240;2022-07-12T11:19:35;28.20;99.90
22838;DHT22;11585;51.450;-0.240;2022-07-12T11:22:04;28.20;99.90
22838;DHT22;11585;51.450;-0.240;2022-07-12T11:25:06;28.30;99.90
22838;DHT22;11585;51.450;-0.240;2022-07-12T11:27:40;28.30;99.90
22838;DHT22;11585;51.450;-0.240;2022-07-12T11:30:07;28.30;99.90
22838;DHT22;11585;51.450;-0.240;2022-07-12T11:32:38;28.40;99.90
22838;DHT22;11585;51.450;-0.240;2022-07-12T11:35:21;28.40;99.90
22838;DHT22;11585;51.450;-0.240;2022-07-12T11:37:57;28.50;99.90
22838;DHT22;11585;51.450;-0.240;2022-07-12T11:40:29;28.50;99.90
22838;DHT22;11585;51.450;-0.240;2022-07-12T11:42:59;28.50;99.90
22838;DHT22;11585;51.450;-0.240;2022-07-12T11:45:30;28.60;99.90
22838;DHT22;11585;51.450;-0.240;2022-07-12T11:47:59;28.70;99.90
22838;DHT22;11585;51.450;-0.240;2022-07-12T11:50:29;28.60;99.90
22838;DHT22;11585;51.450;-0.240;2022-07-12T11:52:55;28.70;99.90
22838;DHT22;11585;51.450;-0.240;2022-07-12T11:55:24;28.70;99.90
22838;DHT22;11585;51.450;-0.240;2022-07-12T11:58:12;28.80;99.90
22838;DHT22;11585;51.450;-0.240;2022-07-12T12:00:43;28.80;99.90
22838;DHT22;11585;51.450;-0.240;2022-07-12T12:03:14;28.80;99.90
22838;DHT22;11585;51.450;-0.240;2022-07-12T12:05:41;28.90;99.90
22838;DHT22;11585;51.450;-0.240;2022-07-12T12:08:13;28.90;99.90
22838;DHT22;11585;51.450;-0.240;2022-07-12T12:10:43;28.90;99.90
22838;DHT22;11585;51.450;-0.240;2022-07-12T12:13:17;28.90;99.90
22838;DHT22;11585;51.450;-0.240;2022-07-12T12:16:00;29.00;99.90
22838;DHT22;11585;51.450;-0.240;2022-07-12T12:18:59;29.00;99.90
22838;DHT22;11585;51.450;-0.240;2022-07-12T12:24:32;29.00;99.90
22838;DHT22;11585;51.450;-0.240;2022-07-12T12:26:59;29.10;99.90
22838;DHT22;11585;51.450;-0.240;2022-07-12T12:29:41;29.10;99.90
22838;DHT22;11585;51.450;-0.240;2022-07-12T12:32:26;29.20;99.90
22838;DHT22;11585;51.450;-0.240;2022-07-12T12:35:11;29.20;99.90
22838;DHT22;11585;51.450;-0.240;2022-07-12T12:37:47;29.20;99.90
22838;DHT22;11585;51.450;-0.240;2022-07-12T12:40:50;29.20;99.90
22838;DHT22;11585;51.450;-0.240;2022-07-12T12:43:26;29.20;99.90
22838;DHT22;11585;51.450;-0.240;2022-07-12T12:45:54;29.20;99.90
22838;DHT22;11585;51.450;-0.240;2022-07-12T12:48:23;29.30;99.90
22838;DHT22;11585;51.450;-0.240;2022-07-12T12:50:54;29.30;99.90
22838;DHT22;11585;51.450;-0.240;2022-07-12T12:53:31;29.30;99.90
22838;DHT22;11585;51.450;-0.240;2022-07-12T12:56:00;29.30;99.90
22838;DHT22;11585;51.450;-0.240;2022-07-12T12:58:38;29.30;99.90
22838;DHT22;11585;51.450;-0.240;2022-07-12T13:01:22;29.40;99.90
22838;DHT22;11585;51.450;-0.240;2022-07-12T13:03:58;29.40;99.90
22838;DHT22;11585;51.450;-0.240;2022-07-12T13:06:32;29.40;99.90
22838;DHT22;11585;51.450;-0.240;2022-07-12T13:09:26;29.40;99.90
22838;DHT22;11585;51.450;-0.240;2022-07-12T13:11:52;29.40;99.90
22838;DHT22;11585;51.450;-0.240;2022-07-12T13:14:21;29.40;99.90
22838;DHT22;11585;51.450;-0.240;2022-07-12T13:16:51;29.40;99.90
22838;DHT22;11585;51.450;-0.240;2022-07-12T13:19:18;29.50;99.90
22838;DHT22;11585;51.450;-0.240;2022-07-12T13:21:45;29.50;99.90
22838;DHT22;11585;51.450;-0.240;2022-07-12T13:24:12;29.50;99.90
22838;DHT22;11585;51.450;-0.240;2022-07-12T13:26:38;29.50;99.90
22838;DHT22;11585;51.450;-0.240;2022-07-12T13:29:10;29.50;99.90
22838;DHT22;11585;51.450;-0.240;2022-07-12T13:31:39;29.60;99.90
22838;DHT22;11585;51.450;-0.240;2022-07-12T13:34:17;29.60;99.90
22838;DHT22;11585;51.450;-0.240;2022-07-12T13:36:47;29.60;99.90
22838;DHT22;11585;51.450;-0.240;2022-07-12T13:39:17;29.60;99.90
22838;DHT22;11585;51.450;-0.240;2022-07-12T13:42:02;29.60;99.90
22838;DHT22;11585;51.450;-0.240;2022-07-12T13:44:28;29.60;99.90
22838;DHT22;11585;51.450;-0.240;2022-07-12T13:47:04;29.70;99.90
22838;DHT22;11585;51.450;-0.240;2022-07-12T13:49:30;29.60;99.90
22838;DHT22;11585;51.450;-0.240;2022-07-12T13:51:57;29.70;99.90
22838;DHT22;11585;51.450;-0.240;2022-07-12T13:54:32;29.70;99.90
22838;DHT22;11585;51.450;-0.240;2022-07-12T13:57:16;29.70;99.90
22838;DHT22;11585;51.450;-0.240;2022-07-12T13:59:43;29.70;99.90
22838;DHT22;11585;51.450;-0.240;2022-07-12T14:02:11;29.70;99.90
22838;DHT22;11585;51.450;-0.240;2022-07-12T14:04:38;29.70;99.90
22838;DHT22;11585;51.450;-0.240;2022-07-12T14:07:05;29.80;99.90
22838;DHT22;11585;51.450;-0.240;2022-07-12T14:09:32;29.80;99.90
22838;DHT22;11585;51.450;-0.240;2022-07-12T14:11:58;29.80;99.90
22838;DHT22;11585;51.450;-0.240;2022-07-12T14:14:29;29.80;99.90
22838;DHT22;11585;51.450;-0.240;2022-07-12T14:17:16;29.80;99.90
22838;DHT22;11585;51.450;-0.240;2022-07-12T14:19:43;29.80;99.90
22838;DHT22;11585;51.450;-0.240;2022-07-12T14:22:17;29.80;99.90
22838;DHT22;11585;51.450;-0.240;2022-07-12T14:24:43;29.90;99.90
22838;DHT22;11585;51.450;-0.240;2022-07-12T14:27:13;29.80;99.90
22838;DHT22;11585;51.450;-0.240;2022-07-12T14:29:40;29.90;99.90
22838;DHT22;11585;51.450;-0.240;2022-07-12T14:32:09;29.90;99.90
22838;DHT22;11585;51.450;-0.240;2022-07-12T14:34:44;29.90;99.90
22838;DHT22;11585;51.450;-0.240;2022-07-12T14:37:19;29.90;99.90
22838;DHT22;11585;51.450;-0.240;2022-07-12T14:39:46;29.90;99.90
22838;DHT22;11585;51.450;-0.240;2022-07-12T14:42:25;29.90;99.90
22838;DHT22;11585;51.450;-0.240;2022-07-12T14:44:53;29.90;99.90
22838;DHT22;11585;51.450;-0.240;2022-07-12T14:47:26;29.90;99.90
22838;DHT22;11585;51.450;-0.240;2022-07-12T14:49:58;29.90;99.90
22838;DHT22;11585;51.450;-0.240;2022-07-12T14:52:36;29.90;99.90
22838;DHT22;11585;51.450;-0.240;2022-07-12T14:55:02;29.80;99.90
22838;DHT22;11585;51.450;-0.240;2022-07-12T14:57:28;29.90;99.90
22838;DHT22;11585;51.450;-0.240;2022-07-12T14:59:54;29.90;99.90
22838;DHT22;11585;51.450;-0.240;2022-07-12T15:02:20;29.90;99.90
22838;DHT22;11585;51.450;-0.240;2022-07-12T15:04:46;29.90;99.90
22838;DHT22;11585;51.450;-0.240;2022-07-12T15:07:11;29.90;99.90
22838;DHT22;11585;51.450;-0.240;2022-07-12T15:09:38;29.90;99.90
22838;DHT22;11585;51.450;-0.240;2022-07-12T15:12:04;29.90;99.90
22838;DHT22;11585;51.450;-0.240;2022-07-12T15:14:30;29.90;99.90
22838;DHT22;11585;51.450;-0.240;2022-07-12T15:16:56;29.90;99.90
22838;DHT22;11585;51.450;-0.240;2022-07-12T15:19:21;29.90;99.90
22838;DHT22;11585;51.450;-0.240;2022-07-12T15:21:50;29.90;99.90
22838;DHT22;11585;51.450;-0.240;2022-07-12T15:24:16;29.90;99.90
22838;DHT22;11585;51.450;-0.240;2022-07-12T15:26:41;29.90;99.90
22838;DHT22;11585;51.450;-0.240;2022-07-12T15:29:09;29.90;99.90
22838;DHT22;11585;51.450;-0.240;2022-07-12T15:31:35;29.90;99.90
22838;DHT22;11585;51.450;-0.240;2022-07-12T15:34:01;29.90;99.90
22838;DHT22;11585;51.450;-0.240;2022-07-12T15:36:27;29.90;99.90
22838;DHT22;11585;51.450;-0.240;2022-07-12T15:38:57;29.80;99.90
22838;DHT22;11585;51.450;-0.240;2022-07-12T15:41:22;29.90;99.90
22838;DHT22;11585;51.450;-0.240;2022-07-12T15:43:48;29.80;99.90